Time;durP1;ratioP1;P1;durP2;ratioP2;P2;SDS_P1;SDS_P2;PMS_P1;PMS_P2;Temp;Humidity;BMP_temperature;BMP_pressure;BME280_temperature;BME280_humidity;BME280_pressure;Samples;Min_cycle;Max_cycle;Signal;HPM_P1;HPM_P2
2023/01/01 00:02:28;;;;;;;733.75;535.45;;;11.70;99.90;;;;;;5052695;28;20044;-67
2023/01/01 00:05:32;;;;;;;936.10;668.20;;;11.90;99.90;;;;;;5052685;28;20040;-68
2023/01/01 00:08:36;;;;;;;812.83;603.63;;;11.80;99.90;;;;;;5051893;28;20047;-69
2023/01/01 00:11:43;;;;;;;761.22;551.97;;;11.80;99.90;;;;;;5052256;28;20048;-69
2023/01/01 00:14:47;;;;;;;689.45;509.92;;;;;;;;;;5052151;28;20158;-69
2023/01/01 00:17:51;;;;;;;691.58;498.58;;;;;;;;;;5052288;28;20052;-69
2023/01/01 00:21:22;;;;;;;662.47;480.10;;;12.90;99.90;;;;;;5052117;28;20040;-69
2023/01/01 00:24:26;;;;;;;678.70;483.73;;;;;;;;;;5052262;28;20048;-68
2023/01/01 00:27:31;;;;;;;682.75;496.40;;;;;;;;;;5052289;28;20044;-69
2023/01/01 00:30:38;;;;;;;663.25;488.35;;;11.70;99.90;;;;;;5052002;28;20044;-68
2023/01/01 00:33:43;;;;;;;648.70;479.65;;;13.30;99.90;;;;;;5051955;28;20052;-69
2023/01/01 00:36:48;;;;;;;661.05;480.17;;;;;;;;;;5051921;28;20064;-69
2023/01/01 00:39:52;;;;;;;687.45;520.33;;;11.70;99.90;;;;;;5052248;28;20103;-69
2023/01/01 00:42:56;;;;;;;701.03;523.60;;;;;;;;;;5052181;28;20048;-68
2023/01/01 00:46:00;;;;;;;716.78;532.50;;;11.60;99.90;;;;;;5051653;28;20040;-69
2023/01/01 00:49:05;;;;;;;702.92;524.53;;;;;;;;;;5051775;28;20040;-68
2023/01/01 00:52:09;;;;;;;690.47;508.33;;;11.30;99.90;;;;;;5051472;28;20048;-68
2023/01/01 00:55:12;;;;;;;942.92;675.88;;;11.30;99.90;;;;;;5050434;28;20070;-69
2023/01/01 00:58:17;;;;;;;1095.82;732.97;;;11.00;99.90;;;;;;5051104;28;20392;-68
2023/01/01 01:01:22;;;;;;;1245.03;777.63;;;11.10;99.90;;;;;;5051423;28;20044;-68
2023/01/01 01:04:26;;;;;;;1202.97;781.05;;;;;;;;;;5051361;28;20041;-69
2023/01/01 01:07:37;;;;;;;1182.78;780.70;;;11.00;99.90;;;;;;5051403;28;20062;-68
2023/01/01 01:10:41;;;;;;;1228.43;796.92;;;11.10;99.90;;;;;;5051219;28;20037;-68
2023/01/01 01:13:47;;;;;;;1216.20;789.70;;;10.90;99.90;;;;;;5050803;28;20037;-68
2023/01/01 01:16:51;;;;;;;1186.40;776.55;;;11.00;99.90;;;;;;5051326;28;20052;-68
2023/01/01 01:19:55;;;;;;;1161.25;772.40;;;10.50;99.90;;;;;;5051675;28;20388;-69
2023/01/01 01:22:59;;;;;;;1188.20;789.28;;;10.90;99.90;;;;;;5052452;28;20045;-68
2023/01/01 01:26:15;;;;;;;1199.28;786.25;;;10.80;99.90;;;;;;5051679;28;20385;-68
2023/01/01 01:29:19;;;;;;;1198.90;792.95;;;10.80;99.90;;;;;;5051298;28;20279;-68
2023/01/01 01:32:23;;;;;;;1167.82;787.55;;;10.70;99.90;;;;;;5051279;28;20600;-68
2023/01/01 01:35:28;;;;;;;1192.47;797.78;;;;;;;;;;5050760;28;20053;-69
2023/01/01 01:38:33;;;;;;;1221.35;797.22;;;;;;;;;;5050834;28;20405;-67
2023/01/01 01:41:36;;;;;;;1250.80;806.22;;;10.50;99.90;;;;;;5050044;28;20056;-67
2023/01/01 01:45:00;;;;;;;1299.28;821.30;;;10.60;99.90;;;;;;5050959;28;20044;-67
2023/01/01 01:48:04;;;;;;;1369.35;803.35;;;;;;;;;;5050219;28;20040;-68
2023/01/01 01:51:09;;;;;;;1350.38;776.97;;;;;;;;;;5050269;28;20041;-68
2023/01/01 01:54:19;;;;;;;1357.22;783.92;;;9.70;99.90;;;;;;5050627;28;20051;-68
2023/01/01 01:57:23;;;;;;;1248.65;779.88;;;;;;;;;;5050512;28;20087;-68
2023/01/01 02:00:27;;;;;;;1285.43;780.38;;;10.30;99.90;;;;;;5038250;28;20515;-68
2023/01/01 02:03:56;;;;;;;1216.90;779.25;;;10.30;99.90;;;;;;5050905;28;20045;-67
2023/01/01 02:07:00;;;;;;;1306.32;782.28;;;;;;;;;;5050594;28;20029;-68
2023/01/01 02:10:04;;;;;;;1999.90;780.53;;;9.80;99.90;;;;;;5054249;28;20059;-68
2023/01/01 02:13:09;;;;;;;1763.03;775.10;;;8.90;99.90;;;;;;5054615;28;20048;-68
2023/01/01 02:16:21;;;;;;;1240.05;763.00;;;10.90;99.90;;;;;;5054250;28;20051;-68
2023/01/01 02:19:57;;;;;;;1268.95;751.80;;;10.20;99.90;;;;;;5054400;28;20037;-67
2023/01/01 02:23:08;;;;;;;1177.07;744.72;;;8.30;99.90;;;;;;5054401;28;20048;-68
2023/01/01 02:26:41;;;;;;;1125.10;738.03;;;10.00;99.90;;;;;;5054521;28;20056;-68
2023/01/01 02:29:52;;;;;;;1078.25;724.30;;;9.90;99.90;;;;;;5054242;28;20036;-68
2023/01/01 02:33:01;;;;;;;1073.65;722.90;;;10.20;99.90;;;;;;5054307;28;20048;-68
2023/01/01 02:36:07;;;;;;;1093.13;718.17;;;9.90;99.90;;;;;;5054280;28;20405;-68
2023/01/01 02:39:13;;;;;;;1176.88;715.95;;;10.80;99.90;;;;;;5054411;28;20048;-68
2023/01/01 02:42:18;;;;;;;1126.72;716.83;;;9.80;99.90;;;;;;5053945;28;20041;-68
2023/01/01 02:45:23;;;;;;;1348.97;714.22;;;;;;;;;;5053777;28;20043;-68
2023/01/01 02:48:50;;;;;;;1259.07;707.58;;;9.80;99.90;;;;;;5053800;28;20059;-68
2023/01/01 02:52:14;;;;;;;1144.90;696.20;;;9.70;99.90;;;;;;5053908;28;20048;-68
2023/01/01 02:55:44;;;;;;;1301.13;687.25;;;10.90;99.90;;;;;;5053907;28;20044;-68
2023/01/01 03:02:26;;;;;;;1007.75;673.22;;;10.10;99.90;;;;;;5053062;28;20500;-68
2023/01/01 03:10:08;;;;;;;865.38;647.67;;;9.40;99.90;;;;;;5053712;28;20060;-69
2023/01/01 03:13:26;;;;;;;877.88;651.30;;;9.30;99.90;;;;;;5054827;28;20040;-68
2023/01/01 03:16:33;;;;;;;898.10;650.95;;;9.20;99.90;;;;;;5053316;28;20515;-68
2023/01/01 03:19:40;;;;;;;939.63;651.55;;;9.60;99.90;;;;;;5053385;28;20051;-68
2023/01/01 03:22:49;;;;;;;868.78;650.33;;;9.00;99.90;;;;;;5053923;28;20052;-68
2023/01/01 03:25:57;;;;;;;894.15;655.75;;;8.40;99.90;;;;;;5053454;28;20052;-67
2023/01/01 03:29:04;;;;;;;886.95;647.70;;;7.70;99.90;;;;;;5053625;28;20048;-67
2023/01/01 03:32:15;;;;;;;862.03;647.05;;;9.30;99.90;;;;;;5053293;28;20044;-68
2023/01/01 03:35:20;;;;;;;799.28;617.78;;;;;;;;;;5052955;28;20515;-69
2023/01/01 03:38:47;;;;;;;786.55;613.97;;;9.60;99.90;;;;;;5053199;28;20048;-66
2023/01/01 03:42:09;;;;;;;764.97;603.30;;;9.70;99.90;;;;;;5053437;28;20040;-68
2023/01/01 03:45:16;;;;;;;;;;;9.70;99.90;;;;;;5052450;28;20048;-68
2023/01/01 03:48:20;;;;;;;757.90;602.88;;;;;;;;;;5052998;28;19917;-67
2023/01/01 03:51:40;;;;;;;758.22;595.55;;;9.50;99.90;;;;;;5053312;28;20484;-68
2023/01/01 03:55:09;;;;;;;757.05;600.80;;;8.30;99.90;;;;;;5052942;28;20068;-69
2023/01/01 03:58:24;;;;;;;760.22;599.35;;;10.40;99.90;;;;;;5052702;28;20519;-68
2023/01/01 04:01:44;;;;;;;741.10;584.83;;;10.10;99.90;;;;;;5052863;28;20044;-68
2023/01/01 04:04:48;;;;;;;710.20;569.20;;;11.00;99.90;;;;;;5052829;28;20048;-69
2023/01/01 04:07:53;;;;;;;714.45;573.53;;;9.70;99.90;;;;;;5052632;28;20162;-68
2023/01/01 04:12:00;;;;;;;691.10;564.40;;;9.70;99.90;;;;;;5052831;28;20154;-69
2023/01/01 04:14:38;;;;;;;684.80;553.92;;;9.70;99.90;;;;;;5052410;28;20040;-68
2023/01/01 04:17:42;;;;;;;681.35;550.42;;;9.50;99.90;;;;;;5051587;28;20238;-67
2023/01/01 04:20:46;;;;;;;683.80;547.40;;;;;;;;;;5052358;28;20040;-68
2023/01/01 04:23:50;;;;;;;687.60;546.35;;;9.90;99.90;;;;;;5052586;28;20047;-67
2023/01/01 04:26:54;;;;;;;666.67;535.88;;;;;;;;;;5052516;28;20040;-68
2023/01/01 04:29:58;;;;;;;663.65;528.15;;;9.60;99.90;;;;;;5052382;28;20048;-69
2023/01/01 04:33:02;;;;;;;668.63;532.38;;;10.40;99.90;;;;;;5051338;28;20047;-68
2023/01/01 04:36:08;;;;;;;657.05;533.15;;;8.40;99.90;;;;;;5051750;28;20052;-68
2023/01/01 04:39:12;;;;;;;648.08;522.65;;;8.30;99.90;;;;;;5052540;28;20048;-68
2023/01/01 04:42:16;;;;;;;646.80;520.42;;;10.50;99.90;;;;;;5052620;28;20104;-68
2023/01/01 04:45:20;;;;;;;631.25;514.05;;;9.80;99.90;;;;;;5054340;28;20071;-68
2023/01/01 04:48:25;;;;;;;630.58;507.30;;;;;;;;;;5051998;28;20048;-68
2023/01/01 04:51:29;;;;;;;602.13;489.83;;;9.20;99.90;;;;;;5051507;28;20044;-68
2023/01/01 04:54:33;;;;;;;590.60;482.55;;;9.70;99.90;;;;;;5051887;28;20056;-68
2023/01/01 04:57:37;;;;;;;590.65;470.63;;;9.50;99.90;;;;;;5051755;28;20409;-68
2023/01/01 05:00:41;;;;;;;584.20;469.85;;;12.30;99.90;;;;;;5051840;28;20523;-68
2023/01/01 05:03:46;;;;;;;581.80;459.02;;;9.50;99.90;;;;;;5051464;28;20503;-68
2023/01/01 05:06:50;;;;;;;609.13;475.08;;;9.60;99.90;;;;;;5051880;28;20187;-68
2023/01/01 05:09:54;;;;;;;611.20;471.77;;;;;;;;;;5051457;28;20051;-68
2023/01/01 05:12:58;;;;;;;603.63;466.40;;;10.10;99.90;;;;;;5051719;28;20532;-68
2023/01/01 05:16:04;;;;;;;613.92;473.65;;;9.30;99.90;;;;;;5051213;28;20052;-68
2023/01/01 05:19:09;;;;;;;635.53;482.02;;;9.40;99.90;;;;;;5051567;28;20040;-68
2023/01/01 05:22:13;;;;;;;606.72;465.35;;;9.40;99.90;;;;;;5050417;28;20048;-68
2023/01/01 05:25:17;;;;;;;612.35;467.85;;;9.90;99.90;;;;;;5051041;28;20048;-68
2023/01/01 05:28:22;;;;;;;619.63;467.80;;;9.50;99.90;;;;;;5051024;28;20052;-68
2023/01/01 05:31:29;;;;;;;621.03;464.02;;;10.00;99.90;;;;;;5051430;28;20104;-67
2023/01/01 05:34:34;;;;;;;599.40;454.48;;;;;;;;;;5050866;28;20036;-69
2023/01/01 05:37:38;;;;;;;635.47;464.75;;;8.00;99.90;;;;;;5051068;28;20056;-68
2023/01/01 05:40:41;;;;;;;606.63;449.30;;;9.30;99.90;;;;;;5051065;28;20040;-67
2023/01/01 05:43:45;;;;;;;613.53;457.58;;;8.50;99.90;;;;;;5050381;28;20421;-68
2023/01/01 05:46:49;;;;;;;583.78;431.77;;;9.30;99.90;;;;;;5050674;28;20067;-68
2023/01/01 05:49:53;;;;;;;587.25;427.83;;;9.30;99.90;;;;;;5050632;28;20048;-68
2023/01/01 05:52:57;;;;;;;582.90;427.17;;;9.40;99.90;;;;;;5050507;28;20409;-68
2023/01/01 05:56:03;;;;;;;572.88;418.77;;;9.20;99.90;;;;;;5050270;28;20057;-68
2023/01/01 05:59:09;;;;;;;570.78;418.02;;;;;;;;;;5050759;28;20044;-67
2023/01/01 06:02:13;;;;;;;561.20;405.55;;;9.20;99.90;;;;;;5051030;28;20195;-67
2023/01/01 06:05:17;;;;;;;550.05;392.98;;;9.20;99.90;;;;;;5050865;28;20532;-68
2023/01/01 06:08:21;;;;;;;521.63;377.27;;;9.00;99.90;;;;;;5051034;28;20040;-67
2023/01/01 06:11:26;;;;;;;525.80;371.25;;;9.20;99.90;;;;;;5050901;28;20076;-67
2023/01/01 06:14:30;;;;;;;516.13;360.92;;;9.30;99.90;;;;;;5050542;28;20044;-67
2023/01/01 06:17:34;;;;;;;510.13;352.88;;;;;;;;;;5050870;28;20404;-68
2023/01/01 06:20:38;;;;;;;506.95;349.35;;;;;;;;;;5050845;28;20044;-68
2023/01/01 06:23:42;;;;;;;491.67;333.98;;;9.10;99.90;;;;;;5050813;28;20044;-67
2023/01/01 06:26:46;;;;;;;479.73;329.20;;;;;;;;;;5050674;28;20116;-67
2023/01/01 06:29:50;;;;;;;471.05;315.50;;;8.60;99.90;;;;;;5050752;28;20120;-69
2023/01/01 06:32:54;;;;;;;462.40;306.83;;;9.10;99.90;;;;;;5050784;28;20530;-68
2023/01/01 06:36:04;;;;;;;473.50;321.00;;;9.40;99.90;;;;;;5050372;28;20083;-68
2023/01/01 06:39:09;;;;;;;479.83;318.13;;;;;;;;;;5050178;28;20044;-68
2023/01/01 06:42:13;;;;;;;459.83;314.52;;;;;;;;;;5050453;28;20515;-68
2023/01/01 06:45:17;;;;;;;456.17;307.50;;;9.10;99.90;;;;;;5050349;28;20040;-68
2023/01/01 06:48:21;;;;;;;452.83;299.00;;;;;;;;;;5050222;28;20396;-68
2023/01/01 06:51:31;;;;;;;439.98;288.33;;;9.30;99.90;;;;;;5050402;28;20051;-68
2023/01/01 06:54:35;;;;;;;438.05;287.55;;;10.30;99.90;;;;;;5050564;28;20064;-68
2023/01/01 06:57:39;;;;;;;449.95;280.20;;;9.50;99.90;;;;;;5054212;28;20060;-68
2023/01/01 07:00:43;;;;;;;430.52;274.90;;;;;;;;;;5054191;28;20062;-68
2023/01/01 07:03:53;;;;;;;421.55;265.45;;;9.00;99.90;;;;;;5054705;28;20048;-68
2023/01/01 07:06:57;;;;;;;407.25;266.05;;;9.60;99.90;;;;;;5053637;28;20044;-68
2023/01/01 07:10:01;;;;;;;394.90;268.02;;;;;;;;;;5053456;28;20648;-68
2023/01/01 07:13:05;;;;;;;416.77;272.08;;;;;;;;;;5053754;28;20099;-69
2023/01/01 07:16:09;;;;;;;408.00;265.55;;;10.40;99.90;;;;;;5053439;28;20507;-67
2023/01/01 07:19:14;;;;;;;448.77;293.00;;;;;;;;;;5053371;28;20051;-68
2023/01/01 07:22:18;;;;;;;440.77;286.90;;;8.10;99.90;;;;;;5053687;28;20044;-68
2023/01/01 07:25:22;;;;;;;454.80;300.27;;;9.90;99.90;;;;;;5053331;28;20044;-68
2023/01/01 07:28:26;;;;;;;464.50;301.02;;;9.90;99.90;;;;;;5053608;28;20063;-68
2023/01/01 07:31:30;;;;;;;479.10;319.85;;;12.60;99.90;;;;;;5053269;28;20044;-68
2023/01/01 07:34:34;;;;;;;492.50;331.40;;;10.20;99.90;;;;;;5053456;28;20052;-68
2023/01/01 07:37:38;;;;;;;505.45;338.27;;;10.30;99.90;;;;;;5053227;28;20048;-67
2023/01/01 07:40:42;;;;;;;500.73;336.05;;;10.60;99.90;;;;;;5053131;28;20047;-68
2023/01/01 07:43:46;;;;;;;484.15;327.13;;;;;;;;;;5053310;28;20040;-68
2023/01/01 07:47:03;;;;;;;463.85;314.98;;;11.10;99.90;;;;;;5052999;28;20068;-68
2023/01/01 07:50:15;;;;;;;469.42;321.77;;;11.50;99.90;;;;;;5053018;28;20060;-68
2023/01/01 07:53:20;;;;;;;491.88;339.08;;;11.10;99.90;;;;;;5052771;28;20056;-68
2023/01/01 07:56:24;;;;;;;492.35;344.42;;;11.20;99.90;;;;;;5052649;28;20060;-67
2023/01/01 07:59:28;;;;;;;494.20;344.60;;;;;;;;;;5052758;28;20039;-68
2023/01/01 08:02:32;;;;;;;487.60;336.48;;;;;;;;;;5052536;28;20044;-68
2023/01/01 08:05:37;;;;;;;469.77;327.80;;;13.00;99.90;;;;;;5052506;28;20052;-68
2023/01/01 08:08:41;;;;;;;457.23;321.88;;;;;;;;;;5052789;28;20388;-67
2023/01/01 08:11:46;;;;;;;427.17;303.83;;;;;;;;;;5052579;28;20055;-68
2023/01/01 08:14:49;;;;;;;408.15;300.38;;;12.40;99.90;;;;;;5052544;28;20036;-68
2023/01/01 08:17:58;;;;;;;370.45;273.48;;;12.50;99.90;;;;;;5052166;28;20075;-68
2023/01/01 08:21:03;;;;;;;355.40;268.27;;;12.80;99.90;;;;;;5052307;28;20036;-67
2023/01/01 08:24:08;;;;;;;345.48;257.30;;;;;;;;;;5052463;28;20044;-67
2023/01/01 08:27:13;;;;;;;338.33;249.85;;;15.60;99.90;;;;;;5052326;28;20048;-67
2023/01/01 08:30:17;;;;;;;327.30;247.45;;;13.50;99.90;;;;;;5052374;28;20052;-67
2023/01/01 08:33:23;;;;;;;314.55;236.07;;;14.60;99.90;;;;;;5052359;28;20040;-69
2023/01/01 08:36:29;;;;;;;316.98;243.43;;;11.80;99.90;;;;;;5052287;28;20060;-68
2023/01/01 08:39:32;;;;;;;294.88;225.00;;;13.50;99.90;;;;;;5051832;28;20282;-69
2023/01/01 08:42:36;;;;;;;290.52;221.32;;;13.60;99.90;;;;;;5051685;28;20393;-69
2023/01/01 08:45:40;;;;;;;273.73;201.43;;;14.20;99.90;;;;;;5051555;28;20044;-69
2023/01/01 08:48:44;;;;;;;213.40;150.32;;;14.00;99.90;;;;;;5051830;28;20044;-68
2023/01/01 08:51:49;;;;;;;207.35;147.25;;;14.10;99.90;;;;;;5051665;28;20418;-69
2023/01/01 08:54:52;;;;;;;185.95;127.07;;;12.00;99.90;;;;;;5051688;28;20036;-69
2023/01/01 08:57:57;;;;;;;168.70;118.15;;;14.60;99.90;;;;;;5051743;28;20048;-69
2023/01/01 09:01:01;;;;;;;158.85;113.15;;;14.60;99.90;;;;;;5051484;28;20044;-68
2023/01/01 09:04:07;;;;;;;154.32;104.65;;;14.70;99.90;;;;;;5051822;28;20043;-68
2023/01/01 09:07:11;;;;;;;136.85;95.05;;;15.00;99.90;;;;;;5051179;28;20530;-69
2023/01/01 09:10:15;;;;;;;127.20;87.60;;;14.60;99.90;;;;;;5050773;28;20107;-69
2023/01/01 09:13:21;;;;;;;118.38;83.90;;;15.20;99.90;;;;;;5051293;28;20048;-69
2023/01/01 09:16:25;;;;;;;111.18;79.20;;;15.20;99.90;;;;;;5051141;28;20551;-69
2023/01/01 09:19:29;;;;;;;94.60;69.57;;;15.60;99.90;;;;;;5050557;28;20373;-68
2023/01/01 09:22:33;;;;;;;91.68;66.38;;;15.80;99.90;;;;;;5050880;28;20052;-67
2023/01/01 09:25:37;;;;;;;92.80;63.83;;;15.80;99.90;;;;;;5051162;28;20487;-69
2023/01/01 09:28:41;;;;;;;85.43;58.17;;;16.10;99.90;;;;;;5050726;28;20044;-69
2023/01/01 09:31:47;;;;;;;76.20;53.17;;;16.30;99.90;;;;;;5051105;28;20048;-67
2023/01/01 09:34:51;;;;;;;73.43;52.20;;;16.50;99.90;;;;;;5050987;28;20063;-68
2023/01/01 09:37:55;;;;;;;67.43;49.60;;;16.70;99.90;;;;;;5051012;28;20052;-67
2023/01/01 09:41:24;;;;;;;63.45;46.20;;;16.90;99.90;;;;;;5051133;28;20044;-68
2023/01/01 09:44:41;;;;;;;61.50;42.90;;;17.20;99.90;;;;;;5050589;28;20418;-68
2023/01/01 09:47:50;;;;;;;64.45;41.85;;;17.30;99.90;;;;;;5050967;28;20123;-68
2023/01/01 09:50:54;;;;;;;63.55;41.70;;;17.50;99.90;;;;;;5050633;28;20507;-67
2023/01/01 09:54:24;;;;;;;60.75;38.97;;;17.70;99.90;;;;;;5050743;28;20052;-68
2023/01/01 09:57:31;;;;;;;58.55;38.78;;;17.90;99.90;;;;;;5049508;28;20123;-68
2023/01/01 10:00:38;;;;;;;61.63;38.53;;;18.00;99.90;;;;;;5050516;28;20036;-68
2023/01/01 10:03:49;;;;;;;54.03;35.80;;;18.10;99.90;;;;;;5050403;28;20044;-68
2023/01/01 10:07:11;;;;;;;52.22;35.70;;;18.10;99.90;;;;;;5050418;28;20048;-68
2023/01/01 10:10:25;;;;;;;56.20;34.83;;;18.20;99.90;;;;;;5050798;28;20512;-67
2023/01/01 10:13:37;;;;;;;52.28;33.88;;;18.30;99.90;;;;;;5050692;28;20044;-69
2023/01/01 10:17:03;;;;;;;46.60;31.90;;;18.40;99.90;;;;;;5050389;28;20061;-69
2023/01/01 10:20:43;;;;;;;56.53;34.00;;;18.50;99.90;;;;;;5050390;28;20048;-69
2023/01/01 10:23:53;;;;;;;53.55;31.33;;;18.60;99.90;;;;;;5050331;28;20052;-69
2023/01/01 10:26:57;;;;;;;51.95;34.28;;;18.60;99.90;;;;;;5050792;28;20384;-70
2023/01/01 10:30:19;;;;;;;50.15;32.38;;;18.70;99.90;;;;;;5052458;28;20044;-70
2023/01/01 10:33:24;;;;;;;51.30;32.70;;;18.60;99.90;;;;;;5054240;28;20392;-69
2023/01/01 10:36:28;;;;;;;45.42;30.83;;;18.70;99.90;;;;;;5054117;28;20052;-69
2023/01/01 10:39:32;;;;;;;41.15;27.60;;;18.70;99.90;;;;;;5054679;28;20492;-69
2023/01/01 10:42:36;;;;;;;44.38;28.98;;;18.70;99.90;;;;;;5054477;28;20607;-69
2023/01/01 10:45:47;;;;;;;44.80;30.40;;;18.80;99.90;;;;;;5053986;28;20283;-69
2023/01/01 10:49:04;;;;;;;48.75;32.90;;;18.80;99.90;;;;;;5054083;28;20040;-70
2023/01/01 10:52:14;;;;;;;48.95;33.53;;;18.90;99.80;;;;;;5054419;28;20052;-69
2023/01/01 10:55:24;;;;;;;50.38;32.10;;;18.90;99.90;;;;;;5054081;28;20036;-69
2023/01/01 10:58:49;;;;;;;48.15;32.72;;;18.90;99.90;;;;;;5053283;28;20060;-69
2023/01/01 11:02:20;;;;;;;50.88;32.58;;;18.90;99.90;;;;;;5053713;28;20044;-69
2023/01/01 11:05:24;;;;;;;45.08;31.60;;;18.90;99.90;;;;;;5053739;28;20392;-70
2023/01/01 11:08:30;;;;;;;50.75;31.48;;;18.90;99.90;;;;;;5053454;28;20397;-70
2023/01/01 11:11:44;;;;;;;48.00;33.35;;;18.90;99.90;;;;;;5053678;28;20064;-69
2023/01/01 11:14:52;;;;;;;54.92;33.55;;;18.90;99.90;;;;;;5053540;28;20044;-70
2023/01/01 11:18:05;;;;;;;56.72;33.75;;;18.80;99.80;;;;;;5053552;28;20106;-69
2023/01/01 11:21:09;;;;;;;43.92;32.15;;;18.70;99.90;;;;;;5053503;28;20044;-69
2023/01/01 11:24:31;;;;;;;48.65;32.50;;;18.70;99.90;;;;;;5053228;28;20048;-70
2023/01/01 11:27:35;;;;;;;54.28;34.92;;;18.70;99.90;;;;;;5053239;28;20051;-69
2023/01/01 11:30:40;;;;;;;50.95;32.50;;;18.60;99.90;;;;;;5053322;28;20103;-70
2023/01/01 11:33:52;;;;;;;53.17;31.77;;;18.60;99.90;;;;;;5052781;28;20063;-69
2023/01/01 11:37:13;;;;;;;46.55;30.98;;;18.60;99.90;;;;;;5052842;28;20060;-70
2023/01/01 11:40:21;;;;;;;48.42;31.25;;;18.50;99.90;;;;;;5052193;28;20044;-70
2023/01/01 11:43:27;;;;;;;49.03;32.47;;;18.50;99.90;;;;;;5052730;28;20413;-70
2023/01/01 11:46:32;;;;;;;42.65;29.88;;;18.50;99.90;;;;;;5052884;28;20381;-69
2023/01/01 11:49:36;;;;;;;53.42;32.22;;;18.40;99.90;;;;;;5052918;28;20059;-70
2023/01/01 11:52:51;;;;;;;42.95;28.85;;;18.40;99.90;;;;;;5052640;28;20409;-69
2023/01/01 11:56:05;;;;;;;43.47;28.25;;;18.30;99.90;;;;;;5051871;28;20052;-69
2023/01/01 11:59:25;;;;;;;50.47;32.22;;;18.30;99.90;;;;;;5052601;28;20044;-69
2023/01/01 12:02:39;;;;;;;51.50;31.08;;;18.20;99.90;;;;;;5052593;28;20048;-68
2023/01/01 12:05:48;;;;;;;42.42;29.25;;;18.10;99.90;;;;;;5052459;28;20048;-68
2023/01/01 12:09:01;;;;;;;54.28;34.47;;;18.10;99.90;;;;;;5052364;28;20048;-69
2023/01/01 12:12:33;;;;;;;56.25;35.58;;;18.10;99.90;;;;;;5052502;28;20052;-68
2023/01/01 12:15:45;;;;;;;54.17;32.67;;;18.10;99.90;;;;;;5052056;28;20052;-67
2023/01/01 12:19:05;;;;;;;52.20;31.10;;;18.00;99.90;;;;;;5052434;28;20059;-68
2023/01/01 12:22:17;;;;;;;45.53;27.95;;;18.00;99.90;;;;;;5052157;28;20048;-68
2023/01/01 12:25:21;;;;;;;43.55;25.52;;;17.90;99.90;;;;;;5051973;28;20183;-69
2023/01/01 12:28:36;;;;;;;39.47;25.00;;;18.00;99.90;;;;;;5051879;28;20056;-68
2023/01/01 12:31:59;;;;;;;39.05;25.00;;;17.90;99.90;;;;;;5052177;28;20060;-69
2023/01/01 12:35:03;;;;;;;40.67;25.10;;;17.90;99.90;;;;;;5051909;28;20064;-69
2023/01/01 12:38:26;;;;;;;43.03;25.67;;;18.00;99.90;;;;;;5051738;28;20056;-70
2023/01/01 12:41:35;;;;;;;42.78;27.33;;;17.90;99.90;;;;;;5051754;28;20036;-68
2023/01/01 12:45:01;;;;;;;40.90;25.05;;;17.90;99.90;;;;;;5051023;28;20068;-69
2023/01/01 12:48:42;;;;;;;41.65;25.30;;;17.90;99.90;;;;;;5051634;28;20040;-69
2023/01/01 12:51:55;;;;;;;46.67;27.95;;;17.90;99.90;;;;;;5055189;28;20047;-68
2023/01/01 12:55:36;;;;;;;44.15;26.65;;;17.80;99.90;;;;;;5050630;28;20044;-69
2023/01/01 12:58:49;;;;;;;;;;;17.80;99.90;;;;;;5051855;28;20056;-67
2023/01/01 13:01:58;;;;;;;44.13;25.40;;;17.80;99.90;;;;;;5051381;28;19916;-68
2023/01/01 13:05:16;;;;;;;42.28;26.95;;;17.80;99.90;;;;;;5051142;28;20424;-68
2023/01/01 13:08:20;;;;;;;55.30;30.42;;;17.80;99.90;;;;;;5051089;28;20048;-69
2023/01/01 13:11:26;;;;;;;45.72;29.20;;;17.80;99.90;;;;;;5051117;28;20040;-69
2023/01/01 13:14:36;;;;;;;45.65;27.17;;;17.70;99.90;;;;;;5050749;28;20044;-69
2023/01/01 13:17:40;;;;;;;45.80;29.00;;;17.70;99.90;;;;;;5050477;28;20068;-69
2023/01/01 13:21:01;;;;;;;48.53;26.85;;;17.70;99.90;;;;;;5051060;28;20519;-69
2023/01/01 13:24:19;;;;;;;38.80;23.17;;;17.70;99.90;;;;;;5050916;28;20052;-69
2023/01/01 13:27:54;;;;;;;33.17;20.05;;;17.60;99.90;;;;;;5051057;28;20048;-69
2023/01/01 13:30:58;;;;;;;35.08;20.73;;;17.60;99.90;;;;;;5051334;28;20036;-69
2023/01/01 13:34:40;;;;;;;34.25;21.20;;;17.60;99.90;;;;;;5051076;28;20348;-69
2023/01/01 13:37:45;;;;;;;39.42;22.60;;;17.60;99.90;;;;;;5050653;28;20629;-69
2023/01/01 13:40:50;;;;;;;35.58;20.75;;;17.60;99.90;;;;;;5050681;28;20196;-68
2023/01/01 13:44:21;;;;;;;43.10;25.75;;;17.50;99.90;;;;;;5050997;28;20048;-68
2023/01/01 13:47:31;;;;;;;;;;;17.50;99.90;;;;;;5051176;28;20398;-68
2023/01/01 13:50:44;;;;;;;40.30;23.67;;;17.50;99.90;;;;;;5050029;28;19913;-69
2023/01/01 13:53:53;;;;;;;42.55;26.73;;;17.40;99.90;;;;;;5050276;28;20048;-69
2023/01/01 13:57:01;;;;;;;38.28;26.10;;;17.40;99.90;;;;;;5050379;28;20048;-68
2023/01/01 14:00:21;;;;;;;44.70;28.08;;;17.40;99.90;;;;;;5050411;28;20044;-69
2023/01/01 14:03:27;;;;;;;42.17;26.77;;;17.40;99.90;;;;;;5052051;28;20515;-69
2023/01/01 14:06:42;;;;;;;40.67;25.90;;;17.40;99.90;;;;;;5049760;28;20036;-69
2023/01/01 14:09:46;;;;;;;43.28;25.45;;;17.30;99.90;;;;;;5049762;28;20048;-68
2023/01/01 14:12:52;;;;;;;51.63;32.38;;;17.30;99.90;;;;;;5050514;28;20044;-68
2023/01/01 14:16:00;;;;;;;48.85;31.63;;;17.30;99.90;;;;;;5050343;28;20400;-68
2023/01/01 14:19:10;;;;;;;57.47;31.45;;;17.30;99.90;;;;;;5050344;28;20404;-68
2023/01/01 14:22:16;;;;;;;54.83;32.65;;;17.20;99.90;;;;;;5050548;28;20051;-68
2023/01/01 14:25:28;;;;;;;53.33;32.85;;;17.20;99.90;;;;;;5050217;28;20056;-68
2023/01/01 14:28:32;;;;;;;;;;;17.20;99.90;;;;;;5050669;28;20040;-68
2023/01/01 14:31:42;;;;;;;52.33;30.17;;;17.20;99.90;;;;;;5050295;28;20241;-70
2023/01/01 14:34:45;;;;;;;50.95;30.52;;;17.10;99.90;;;;;;5050288;28;20420;-68
2023/01/01 14:37:49;;;;;;;52.13;32.88;;;17.00;99.90;;;;;;5049975;28;20405;-69
2023/01/01 14:41:13;;;;;;;50.20;31.63;;;17.10;99.90;;;;;;5050500;28;20503;-68
2023/01/01 14:44:20;;;;;;;52.85;33.72;;;17.10;99.90;;;;;;5050049;28;20199;-68
2023/01/01 14:47:34;;;;;;;60.38;35.17;;;17.00;99.90;;;;;;5050042;28;20039;-68
2023/01/01 14:50:38;;;;;;;68.10;38.53;;;17.00;99.90;;;;;;5050422;28;20056;-68
2023/01/01 14:53:44;;;;;;;75.10;44.40;;;17.00;99.90;;;;;;5049577;28;20056;-68
2023/01/01 14:56:50;;;;;;;75.82;44.22;;;17.00;99.90;;;;;;5050143;28;20049;-69
2023/01/01 14:59:55;;;;;;;82.50;47.28;;;16.90;99.90;;;;;;5049922;28;20414;-69
2023/01/01 15:03:15;;;;;;;81.18;49.28;;;16.90;99.90;;;;;;5050373;28;20044;-68
2023/01/01 15:06:19;;;;;;;102.15;59.10;;;16.80;99.90;;;;;;5049593;28;20116;-68
2023/01/01 15:09:23;;;;;;;99.35;57.75;;;16.80;99.90;;;;;;5050085;28;20048;-68
2023/01/01 15:12:28;;;;;;;85.60;51.13;;;16.80;99.90;;;;;;5049983;28;20033;-68
2023/01/01 15:15:36;;;;;;;92.30;53.03;;;16.70;99.90;;;;;;5049740;28;20534;-69
2023/01/01 15:18:41;;;;;;;90.85;51.95;;;16.70;99.90;;;;;;5053277;28;20052;-68
2023/01/01 15:21:45;;;;;;;93.30;53.30;;;16.70;99.90;;;;;;5053567;28;20405;-68
2023/01/01 15:24:49;;;;;;;103.18;59.15;;;16.60;99.90;;;;;;5052735;28;20421;-68
2023/01/01 15:27:54;;;;;;;111.60;62.78;;;16.50;99.90;;;;;;5053300;28;20060;-68
2023/01/01 15:30:59;;;;;;;111.78;64.40;;;16.50;99.90;;;;;;5053108;28;20048;-68
2023/01/01 15:34:03;;;;;;;115.47;65.25;;;16.40;99.90;;;;;;5053436;28;20040;-68
2023/01/01 15:37:17;;;;;;;109.95;62.13;;;16.40;99.90;;;;;;5053053;28;20072;-68
2023/01/01 15:40:24;;;;;;;99.78;58.30;;;16.30;99.90;;;;;;5053051;28;20496;-68
2023/01/01 15:43:30;;;;;;;120.43;63.35;;;16.20;99.90;;;;;;5053002;28;20044;-68
2023/01/01 15:46:34;;;;;;;103.70;59.40;;;16.20;99.90;;;;;;5052777;28;20048;-68
2023/01/01 15:49:38;;;;;;;105.13;56.33;;;16.10;99.90;;;;;;5052891;28;20040;-67
2023/01/01 15:52:43;;;;;;;91.35;53.88;;;16.10;99.90;;;;;;5052636;28;20072;-68
2023/01/01 15:55:57;;;;;;;95.38;52.17;;;16.00;99.90;;;;;;5053158;28;20056;-68
2023/01/01 15:59:20;;;;;;;107.35;54.25;;;16.00;99.90;;;;;;5052498;28;20056;-68
2023/01/01 16:02:31;;;;;;;103.15;54.50;;;16.00;99.90;;;;;;5053120;28;20115;-68
2023/01/01 16:05:35;;;;;;;107.88;57.50;;;15.90;99.90;;;;;;5052627;28;20056;-69
2023/01/01 16:08:39;;;;;;;132.43;64.55;;;15.80;99.90;;;;;;5052183;28;20052;-70
2023/01/01 16:11:43;;;;;;;123.07;66.70;;;15.80;99.90;;;;;;5052502;28;20043;-69